createdAt,value
2019-05-09T00:00:25.917Z,13.90
2019-05-09T00:02:54.762Z,13.90
2019-05-09T00:05:25.476Z,13.90
2019-05-09T00:07:54.203Z,13.90
2019-05-09T00:10:37.774Z,13.80
2019-05-09T00:12:54.097Z,13.90
2019-05-09T00:15:24.176Z,13.90
2019-05-09T00:17:53.376Z,13.90
2019-05-09T00:20:43.602Z,13.80
2019-05-09T00:23:13.550Z,13.80
2019-05-09T00:25:43.320Z,13.80
2019-05-09T00:28:13.530Z,13.80
2019-05-09T00:30:56.257Z,13.70
2019-05-09T00:33:34.298Z,13.70
2019-05-09T00:36:04.375Z,13.60
2019-05-09T00:38:44.398Z,13.60
2019-05-09T00:41:13.981Z,13.70
2019-05-09T00:43:44.752Z,13.60
2019-05-09T00:46:15.259Z,13.60
2019-05-09T00:48:45.694Z,13.60
2019-05-09T00:51:14.562Z,13.50
2019-05-09T00:53:44.436Z,13.50
2019-05-09T00:56:13.566Z,13.50
2019-05-09T00:58:44.102Z,13.40
2019-05-09T01:01:14.835Z,13.40
2019-05-09T01:03:44.291Z,13.30
2019-05-09T01:06:13.554Z,13.30
2019-05-09T01:08:44.223Z,13.30
2019-05-09T01:11:15.616Z,13.20
2019-05-09T01:13:44.041Z,13.10
2019-05-09T01:16:13.508Z,13.20
2019-05-09T01:18:43.713Z,13.20
2019-05-09T01:21:13.358Z,13.10
2019-05-09T01:23:43.646Z,13.10
2019-05-09T01:26:13.337Z,13.10
2019-05-09T01:28:44.232Z,13.10
2019-05-09T01:31:13.335Z,13.10
2019-05-09T01:33:59.002Z,13.10
2019-05-09T01:36:29.498Z,13.00
2019-05-09T01:38:58.375Z,13.00
2019-05-09T01:41:31.134Z,13.00
2019-05-09T01:43:57.785Z,13.00
2019-05-09T01:46:26.775Z,13.00
2019-05-09T01:48:55.666Z,13.00
2019-05-09T01:51:24.644Z,13.00
2019-05-09T01:53:55.292Z,12.90
2019-05-09T01:56:24.304Z,12.90
2019-05-09T01:58:53.806Z,12.80
2019-05-09T02:01:24.141Z,12.80
2019-05-09T02:03:53.715Z,12.80
2019-05-09T02:06:24.498Z,12.70
2019-05-09T02:08:54.516Z,12.70
2019-05-09T02:11:25.320Z,12.70
2019-05-09T02:13:54.414Z,12.70
2019-05-09T02:16:33.874Z,12.70
2019-05-09T02:19:13.444Z,12.70
2019-05-09T02:21:43.639Z,12.60
2019-05-09T02:24:14.061Z,12.60
2019-05-09T02:26:43.887Z,12.60
2019-05-09T02:29:13.831Z,12.60
2019-05-09T02:31:44.541Z,12.50
2019-05-09T02:34:14.910Z,12.50
2019-05-09T02:36:44.185Z,12.50
2019-05-09T02:39:13.064Z,12.50
2019-05-09T02:41:59.421Z,12.50
2019-05-09T02:44:12.365Z,12.50
2019-05-09T02:46:57.986Z,12.50
2019-05-09T02:49:28.432Z,12.50
2019-05-09T02:51:58.877Z,12.40
2019-05-09T02:54:29.748Z,12.40
2019-05-09T02:56:58.187Z,12.50
2019-05-09T02:59:38.881Z,12.40
2019-05-09T03:02:28.668Z,12.40
2019-05-09T03:04:58.126Z,12.50
2019-05-09T03:07:31.752Z,12.50
2019-05-09T03:10:01.682Z,12.50
2019-05-09T03:12:35.845Z,12.50
2019-05-09T03:15:02.815Z,12.50
2019-05-09T03:17:31.746Z,12.50
2019-05-09T03:20:00.640Z,12.50
2019-05-09T03:22:29.769Z,12.50
2019-05-09T03:24:58.938Z,12.50
2019-05-09T03:27:31.955Z,12.50
2019-05-09T03:30:02.408Z,12.50
2019-05-09T03:32:31.295Z,12.50
2019-05-09T03:35:00.164Z,12.50
2019-05-09T03:37:29.015Z,12.50
2019-05-09T03:39:58.146Z,12.50
2019-05-09T03:42:39.700Z,12.50
2019-05-09T03:44:58.210Z,12.50
2019-05-09T03:47:31.148Z,12.50
2019-05-09T03:50:10.788Z,12.50
2019-05-09T03:52:39.602Z,12.50
2019-05-09T03:55:11.094Z,12.50
2019-05-09T03:57:44.294Z,12.50
2019-05-09T04:00:14.264Z,12.50
2019-05-09T04:02:43.105Z,12.50
2019-05-09T04:05:12.279Z,12.50
2019-05-09T04:07:41.090Z,12.50
2019-05-09T04:10:09.942Z,12.50
2019-05-09T04:12:52.775Z,12.50
2019-05-09T04:15:09.524Z,12.40
2019-05-09T04:17:47.431Z,12.40
2019-05-09T04:20:17.525Z,12.50
2019-05-09T04:22:48.831Z,12.50
2019-05-09T04:25:19.695Z,12.40
2019-05-09T04:27:50.156Z,12.40
2019-05-09T04:30:19.029Z,12.40
2019-05-09T04:32:48.269Z,12.40
2019-05-09T04:35:17.577Z,12.40
2019-05-09T04:37:48.199Z,12.40
2019-05-09T04:40:17.904Z,12.40
2019-05-09T04:42:47.441Z,12.40
2019-05-09T04:45:21.035Z,12.50
2019-05-09T04:47:49.985Z,12.50
2019-05-09T04:50:23.642Z,12.50
2019-05-09T04:52:49.515Z,12.50
2019-05-09T04:55:19.557Z,12.40
2019-05-09T04:57:48.661Z,12.50
2019-05-09T05:00:19.280Z,12.50
2019-05-09T05:02:50.713Z,12.50
2019-05-09T05:05:19.577Z,12.50
2019-05-09T05:07:48.492Z,12.60
2019-05-09T05:10:18.394Z,12.60
2019-05-09T05:12:48.443Z,12.70
2019-05-09T05:15:18.358Z,12.70
2019-05-09T05:17:47.899Z,12.80
2019-05-09T05:20:18.686Z,12.80
2019-05-09T05:22:51.579Z,12.80
2019-05-09T05:25:20.404Z,12.80
2019-05-09T05:27:49.321Z,12.80
2019-05-09T05:30:18.323Z,12.90
2019-05-09T05:32:58.048Z,13.00
2019-05-09T05:35:28.636Z,13.00
2019-05-09T05:37:58.057Z,13.00
2019-05-09T05:40:33.115Z,13.00
2019-05-09T05:42:58.513Z,13.00
2019-05-09T05:45:29.213Z,13.00
2019-05-09T05:48:00.054Z,13.00
2019-05-09T05:50:28.911Z,13.00
2019-05-09T05:52:57.918Z,13.00
2019-05-09T05:55:27.554Z,13.00
2019-05-09T05:57:57.874Z,13.10
2019-05-09T06:00:28.566Z,13.10
2019-05-09T06:02:58.626Z,13.20
2019-05-09T06:05:27.992Z,13.20
2019-05-09T06:07:57.640Z,13.30
2019-05-09T06:10:29.067Z,13.40
2019-05-09T06:12:57.605Z,13.40
2019-05-09T06:15:28.668Z,13.50
2019-05-09T06:17:57.837Z,13.60
2019-05-09T06:20:28.294Z,13.60
2019-05-09T06:22:58.182Z,13.60
2019-05-09T06:25:30.665Z,13.60
2019-05-09T06:27:58.436Z,13.60
2019-05-09T06:30:31.136Z,13.60
2019-05-09T06:32:59.995Z,13.60
2019-05-09T06:35:29.020Z,13.60
2019-05-09T06:37:58.755Z,13.60
2019-05-09T06:40:28.711Z,13.70
2019-05-09T06:42:59.308Z,13.70
2019-05-09T06:45:33.124Z,13.70
2019-05-09T06:48:01.958Z,13.70
2019-05-09T06:50:30.711Z,13.60
2019-05-09T06:52:59.585Z,13.60
2019-05-09T06:55:29.797Z,13.60
2019-05-09T06:57:58.772Z,13.60
2019-05-09T07:00:40.037Z,13.60
2019-05-09T07:03:10.454Z,13.60
2019-05-09T07:05:52.745Z,13.70
2019-05-09T07:08:23.150Z,13.70
2019-05-09T07:10:51.959Z,13.80
2019-05-09T07:13:20.832Z,13.80
2019-05-09T07:15:50.959Z,13.90
2019-05-09T07:18:19.827Z,13.90
2019-05-09T07:20:48.743Z,14.00
2019-05-09T07:23:17.855Z,14.00
2019-05-09T07:26:04.656Z,14.00
2019-05-09T07:28:33.539Z,14.10
2019-05-09T07:31:17.715Z,14.20
2019-05-09T07:33:51.159Z,14.40
2019-05-09T07:36:20.044Z,14.60
2019-05-09T07:38:48.886Z,14.60
2019-05-09T07:41:17.925Z,14.70
2019-05-09T07:43:47.831Z,14.80
2019-05-09T07:46:30.241Z,14.80
2019-05-09T07:48:59.616Z,14.80
2019-05-09T07:51:28.370Z,14.90
2019-05-09T07:53:59.002Z,14.80
2019-05-09T07:56:28.480Z,14.80
2019-05-09T07:58:58.488Z,14.70
2019-05-09T08:01:28.173Z,14.70
2019-05-09T08:03:58.372Z,14.70
2019-05-09T08:06:28.714Z,14.70
2019-05-09T08:08:58.289Z,14.80
2019-05-09T08:11:28.682Z,14.90
2019-05-09T08:13:57.772Z,14.90
2019-05-09T08:16:27.902Z,15.00
2019-05-09T08:18:57.815Z,15.00
2019-05-09T08:21:27.649Z,15.10
2019-05-09T08:23:57.857Z,15.10
2019-05-09T08:26:29.674Z,15.10
2019-05-09T08:28:58.345Z,15.10
2019-05-09T08:31:28.066Z,15.10
2019-05-09T08:33:59.349Z,15.10
2019-05-09T08:36:28.289Z,15.10
2019-05-09T08:38:58.609Z,15.20
2019-05-09T08:41:29.057Z,15.20
2019-05-09T08:43:58.144Z,15.30
2019-05-09T08:46:28.637Z,15.20
2019-05-09T08:48:57.818Z,15.30
2019-05-09T08:51:36.739Z,15.30
2019-05-09T08:53:59.832Z,15.30
2019-05-09T08:56:28.625Z,15.30
2019-05-09T08:59:01.635Z,15.40
2019-05-09T09:01:43.796Z,15.40
2019-05-09T09:03:58.447Z,15.40
2019-05-09T09:06:27.864Z,15.40
2019-05-09T09:08:57.550Z,15.50
2019-05-09T09:11:28.000Z,15.60
2019-05-09T09:13:57.788Z,15.60
2019-05-09T09:16:28.365Z,15.60
2019-05-09T09:18:58.479Z,15.60
2019-05-09T09:21:28.612Z,15.60
2019-05-09T09:23:58.228Z,15.60
2019-05-09T09:26:27.860Z,15.60
2019-05-09T09:28:57.735Z,15.60
2019-05-09T09:31:28.538Z,15.60
2019-05-09T09:33:58.507Z,15.50
2019-05-09T09:36:28.174Z,15.50
2019-05-09T09:38:58.648Z,15.50
2019-05-09T09:41:28.708Z,15.60
2019-05-09T09:43:58.398Z,15.80
2019-05-09T09:46:28.533Z,15.80
2019-05-09T09:48:58.615Z,15.90
2019-05-09T09:51:27.868Z,16.00
2019-05-09T09:53:58.333Z,16.00
2019-05-09T09:56:28.234Z,16.00
2019-05-09T09:58:58.888Z,16.00
2019-05-09T10:01:29.309Z,16.00
2019-05-09T10:04:16.704Z,15.90
2019-05-09T10:06:38.798Z,15.80
2019-05-09T10:09:09.395Z,15.80
2019-05-09T10:11:38.284Z,15.80
2019-05-09T10:14:08.272Z,15.90
2019-05-09T10:16:41.293Z,16.00
2019-05-09T10:19:14.202Z,15.90
2019-05-09T10:21:48.606Z,15.90
2019-05-09T10:24:17.624Z,15.90
2019-05-09T10:27:04.432Z,15.90
2019-05-09T10:29:33.425Z,15.90
2019-05-09T10:32:02.309Z,16.00
2019-05-09T10:34:31.064Z,16.10
2019-05-09T10:36:59.923Z,16.10
2019-05-09T10:39:28.758Z,16.10
2019-05-09T10:41:59.169Z,16.10
2019-05-09T10:44:37.464Z,16.10
2019-05-09T10:47:08.618Z,16.10
2019-05-09T10:49:37.989Z,16.10
2019-05-09T10:52:08.758Z,16.10
2019-05-09T10:54:37.469Z,16.10
2019-05-09T10:57:06.306Z,16.20
2019-05-09T10:59:37.542Z,16.20
2019-05-09T11:02:09.204Z,16.20
2019-05-09T11:04:37.949Z,16.30
2019-05-09T11:07:08.120Z,16.40
2019-05-09T11:09:39.009Z,16.30
2019-05-09T11:12:07.961Z,16.40
2019-05-09T11:14:37.762Z,16.40
2019-05-09T11:17:12.489Z,16.40
2019-05-09T11:19:37.181Z,16.40
2019-05-09T11:22:08.045Z,16.40
2019-05-09T11:24:45.887Z,16.30
2019-05-09T11:27:08.668Z,16.50
2019-05-09T11:29:38.836Z,16.50
2019-05-09T11:32:08.156Z,16.60
2019-05-09T11:34:37.614Z,16.60
2019-05-09T11:37:08.494Z,16.60
2019-05-09T11:39:42.034Z,16.70
2019-05-09T11:42:07.476Z,17.10
2019-05-09T11:44:38.411Z,17.50
2019-05-09T11:47:26.826Z,17.70
2019-05-09T11:49:39.060Z,17.90
2019-05-09T11:52:08.353Z,17.90
2019-05-09T11:54:38.822Z,18.00
2019-05-09T11:57:07.770Z,18.00
2019-05-09T11:59:37.988Z,18.10
2019-05-09T12:02:08.829Z,18.00
2019-05-09T12:04:37.998Z,18.00
2019-05-09T12:07:07.903Z,18.00
2019-05-09T12:09:38.498Z,18.00
2019-05-09T12:12:07.404Z,18.00
2019-05-09T12:14:38.166Z,18.20
2019-05-09T12:17:08.425Z,18.20
2019-05-09T12:19:38.073Z,18.30
2019-05-09T12:22:08.915Z,18.40
2019-05-09T12:24:38.536Z,18.60
2019-05-09T12:27:08.748Z,18.50
2019-05-09T12:29:38.691Z,18.40
2019-05-09T12:32:08.727Z,18.60
2019-05-09T12:34:37.879Z,18.70
2019-05-09T12:37:09.349Z,18.70
2019-05-09T12:39:37.817Z,18.70
2019-05-09T12:42:08.856Z,18.60
2019-05-09T12:44:37.266Z,18.60
2019-05-09T12:47:06.197Z,18.60
2019-05-09T12:49:35.161Z,18.50
2019-05-09T12:52:04.143Z,18.50
2019-05-09T12:54:32.975Z,18.60
2019-05-09T12:57:01.812Z,18.90
2019-05-09T12:59:45.494Z,19.20
2019-05-09T13:02:01.286Z,19.50
2019-05-09T13:04:30.238Z,19.80
2019-05-09T13:06:59.135Z,19.80
2019-05-09T13:09:28.640Z,19.70
2019-05-09T13:11:57.883Z,19.80
2019-05-09T13:14:28.560Z,19.80
2019-05-09T13:17:04.867Z,19.60
2019-05-09T13:19:41.077Z,19.40
2019-05-09T13:22:09.888Z,19.40
2019-05-09T13:24:39.590Z,19.70
2019-05-09T13:27:08.481Z,19.70
2019-05-09T13:29:38.117Z,19.90
2019-05-09T13:32:08.742Z,20.00
2019-05-09T13:34:38.052Z,20.10
2019-05-09T13:37:09.056Z,20.10
2019-05-09T13:39:39.737Z,20.20
2019-05-09T13:42:08.353Z,20.30
2019-05-09T13:44:41.295Z,20.30
2019-05-09T13:47:10.681Z,20.40
2019-05-09T13:49:39.656Z,20.50
2019-05-09T13:52:10.175Z,20.70
2019-05-09T13:54:39.217Z,20.60
2019-05-09T13:57:08.771Z,20.60
2019-05-09T13:59:37.703Z,20.60
2019-05-09T14:02:06.539Z,20.50
2019-05-09T14:04:35.362Z,20.30
2019-05-09T14:07:04.226Z,20.30
2019-05-09T14:09:33.078Z,20.20
2019-05-09T14:12:01.980Z,20.10
2019-05-09T14:14:30.803Z,20.10
2019-05-09T14:16:59.625Z,20.30
2019-05-09T14:19:39.963Z,20.40
2019-05-09T14:21:58.925Z,20.50
2019-05-09T14:24:28.058Z,20.40
2019-05-09T14:26:58.209Z,20.20
2019-05-09T14:29:31.345Z,20.10
2019-05-09T14:31:57.786Z,20.00
2019-05-09T14:34:26.591Z,19.90
2019-05-09T14:36:58.313Z,19.80
2019-05-09T14:39:27.700Z,19.80
2019-05-09T14:41:57.904Z,19.80
2019-05-09T14:44:27.735Z,19.70
2019-05-09T14:46:58.370Z,19.70
2019-05-09T14:49:39.763Z,19.70
2019-05-09T14:51:58.051Z,19.50
2019-05-09T14:54:28.917Z,19.50
2019-05-09T14:56:58.376Z,19.50
2019-05-09T14:59:28.598Z,19.40
2019-05-09T15:01:59.110Z,19.40
2019-05-09T15:04:28.371Z,19.40
2019-05-09T15:06:57.807Z,19.50
2019-05-09T15:09:28.381Z,19.60
2019-05-09T15:11:58.430Z,19.70
2019-05-09T15:14:28.969Z,19.80
2019-05-09T15:16:57.981Z,19.90
2019-05-09T15:19:28.744Z,20.20
2019-05-09T15:22:00.441Z,20.50
2019-05-09T15:24:28.782Z,20.70
2019-05-09T15:26:58.145Z,20.70
2019-05-09T15:29:28.957Z,20.90
2019-05-09T15:32:05.611Z,21.00
2019-05-09T15:34:28.568Z,21.10
2019-05-09T15:36:58.341Z,21.20
2019-05-09T15:39:27.891Z,21.00
2019-05-09T15:41:57.961Z,20.90
2019-05-09T15:44:26.905Z,21.00
2019-05-09T15:46:57.355Z,21.10
2019-05-09T15:49:28.471Z,21.30
2019-05-09T15:51:58.463Z,21.50
2019-05-09T15:54:29.383Z,21.50
2019-05-09T15:56:58.156Z,21.50
2019-05-09T15:59:28.079Z,21.30
2019-05-09T16:01:58.395Z,21.10
2019-05-09T16:04:28.053Z,21.00
2019-05-09T16:06:57.094Z,21.00
2019-05-09T16:09:28.385Z,21.00
2019-05-09T16:11:56.697Z,20.90
2019-05-09T16:14:27.688Z,20.80
2019-05-09T16:16:56.208Z,20.70
2019-05-09T16:19:25.306Z,20.60
2019-05-09T16:21:54.083Z,20.50
2019-05-09T16:24:22.947Z,20.30
2019-05-09T16:26:51.843Z,20.40
2019-05-09T16:29:20.644Z,20.40
2019-05-09T16:31:49.464Z,20.70
2019-05-09T16:34:18.393Z,20.90
2019-05-09T16:36:48.051Z,21.00
2019-05-09T16:39:17.928Z,21.10
2019-05-09T16:41:48.303Z,21.00
2019-05-09T16:44:18.254Z,20.80
2019-05-09T16:46:48.496Z,20.80
2019-05-09T16:49:19.726Z,20.80
2019-05-09T16:51:48.586Z,20.80
2019-05-09T16:54:18.168Z,20.60
2019-05-09T16:56:47.254Z,20.50
2019-05-09T16:59:17.879Z,20.40
2019-05-09T17:01:49.904Z,20.40
2019-05-09T17:04:19.106Z,20.30
2019-05-09T17:06:49.692Z,20.30
2019-05-09T17:09:18.194Z,20.20
2019-05-09T17:11:48.029Z,20.30
2019-05-09T17:14:19.333Z,20.30
2019-05-09T17:16:48.283Z,20.20
2019-05-09T17:19:19.502Z,20.20
2019-05-09T17:21:49.718Z,20.30
2019-05-09T17:24:20.095Z,20.20
2019-05-09T17:26:49.098Z,20.20
2019-05-09T17:29:18.562Z,20.20
2019-05-09T17:31:48.792Z,20.10
2019-05-09T17:34:19.042Z,20.10
2019-05-09T17:36:48.064Z,20.10
2019-05-09T17:39:18.583Z,20.00
2019-05-09T17:41:47.423Z,19.70
2019-05-09T17:44:18.446Z,19.60
2019-05-09T17:46:47.978Z,19.50
2019-05-09T17:49:17.522Z,19.40
2019-05-09T17:51:48.246Z,19.30
2019-05-09T17:54:18.266Z,19.10
2019-05-09T17:56:48.437Z,18.90
2019-05-09T17:59:18.373Z,18.70
2019-05-09T18:01:48.277Z,18.60
2019-05-09T18:04:17.975Z,18.40
2019-05-09T18:06:48.915Z,18.30
2019-05-09T18:09:18.994Z,18.20
2019-05-09T18:11:48.372Z,18.10
2019-05-09T18:14:18.501Z,18.00
2019-05-09T18:16:47.939Z,17.90
2019-05-09T18:19:17.838Z,17.80
2019-05-09T18:21:51.066Z,17.80
2019-05-09T18:24:21.613Z,17.70
2019-05-09T18:26:49.335Z,17.60
2019-05-09T18:29:18.325Z,17.50
2019-05-09T18:32:07.571Z,17.40
2019-05-09T18:34:37.945Z,17.30
2019-05-09T18:37:07.980Z,17.20
2019-05-09T18:39:37.512Z,17.00
2019-05-09T18:42:08.513Z,17.00
2019-05-09T18:44:36.946Z,16.90
2019-05-09T18:47:07.816Z,16.80
2019-05-09T18:49:36.518Z,16.70
2019-05-09T18:52:05.336Z,16.70
2019-05-09T18:54:34.306Z,16.60
2019-05-09T18:57:03.199Z,16.60
2019-05-09T18:59:32.006Z,16.50
2019-05-09T19:02:00.862Z,16.40
2019-05-09T19:04:29.687Z,16.40
2019-05-09T19:06:58.564Z,16.30
2019-05-09T19:09:27.425Z,16.20
2019-05-09T19:11:56.217Z,16.10
2019-05-09T19:14:25.035Z,16.10
2019-05-09T19:17:11.990Z,16.00
2019-05-09T19:19:58.877Z,16.00
2019-05-09T19:22:27.742Z,15.90
2019-05-09T19:24:56.529Z,15.80
2019-05-09T19:27:25.430Z,15.80
2019-05-09T19:29:54.383Z,15.70
2019-05-09T19:32:23.211Z,15.70
2019-05-09T19:34:52.109Z,15.60
2019-05-09T19:37:20.913Z,15.60
2019-05-09T19:39:49.752Z,15.50
2019-05-09T19:42:18.645Z,15.40
2019-05-09T19:44:47.574Z,15.40
2019-05-09T19:47:16.401Z,15.30
2019-05-09T19:49:46.407Z,15.20
2019-05-09T19:52:15.332Z,15.10
2019-05-09T19:54:44.253Z,15.10
2019-05-09T19:57:13.154Z,15.00
2019-05-09T19:59:41.943Z,15.00
2019-05-09T20:02:10.791Z,14.90
2019-05-09T20:04:39.528Z,14.90
2019-05-09T20:07:08.873Z,14.90
2019-05-09T20:09:51.320Z,14.80
2019-05-09T20:15:14.242Z,14.70
2019-05-09T20:17:43.093Z,14.70
2019-05-09T20:20:12.145Z,14.70
2019-05-09T20:22:51.980Z,14.60
2019-05-09T20:25:12.072Z,14.60
2019-05-09T20:27:40.809Z,14.60
2019-05-09T20:30:10.404Z,14.50
2019-05-09T20:32:39.239Z,14.50
2019-05-09T20:35:08.491Z,14.50
2019-05-09T20:37:37.522Z,14.50
2019-05-09T20:40:09.654Z,14.40
2019-05-09T20:42:38.634Z,14.40
2019-05-09T20:45:07.844Z,14.30
2019-05-09T20:47:37.999Z,14.30
2019-05-09T20:50:07.613Z,14.30
2019-05-09T20:52:36.694Z,14.30
2019-05-09T20:55:06.545Z,14.30
2019-05-09T20:57:35.572Z,14.30
2019-05-09T21:00:06.447Z,14.30
2019-05-09T21:02:35.524Z,14.30
2019-05-09T21:05:06.274Z,14.20
2019-05-09T21:07:35.511Z,14.20
2019-05-09T21:10:07.632Z,14.20
2019-05-09T21:12:46.310Z,14.20
2019-05-09T21:15:16.679Z,14.20
2019-05-09T21:17:45.795Z,14.20
2019-05-09T21:20:14.844Z,14.20
2019-05-09T21:22:43.877Z,14.10
2019-05-09T21:25:12.894Z,14.10
2019-05-09T21:27:42.050Z,14.10
2019-05-09T21:30:11.042Z,14.10
2019-05-09T21:32:40.000Z,14.10
2019-05-09T21:35:08.995Z,14.10
2019-05-09T21:37:37.813Z,14.10
2019-05-09T21:40:07.541Z,14.00
2019-05-09T21:42:36.538Z,13.90
2019-05-09T21:45:06.805Z,13.90
2019-05-09T21:47:35.593Z,13.80
2019-05-09T21:50:07.041Z,13.80
2019-05-09T21:52:35.875Z,13.70
2019-05-09T21:55:05.689Z,13.70
2019-05-09T21:57:34.557Z,13.70
2019-05-09T22:00:04.913Z,13.70
2019-05-09T22:02:33.930Z,13.70
2019-05-09T22:05:03.130Z,13.70
2019-05-09T22:07:32.107Z,13.70
2019-05-09T22:10:01.005Z,13.70
2019-05-09T22:12:30.015Z,13.70
2019-05-09T22:14:59.012Z,13.60
2019-05-09T22:17:35.473Z,13.70
2019-05-09T22:20:06.632Z,13.70
2019-05-09T22:22:37.971Z,13.70
2019-05-09T22:25:10.188Z,13.70
2019-05-09T22:27:39.103Z,13.70
2019-05-09T22:30:10.730Z,13.60
2019-05-09T22:32:39.794Z,13.70
2019-05-09T22:35:09.274Z,13.70
2019-05-09T22:37:38.164Z,13.60
2019-05-09T22:40:08.711Z,13.70
2019-05-09T22:42:37.691Z,13.70
2019-05-09T22:45:07.822Z,13.70
2019-05-09T22:47:36.850Z,13.70
2019-05-09T22:50:06.502Z,13.60
2019-05-09T22:52:35.487Z,13.60
2019-05-09T22:55:05.539Z,13.60
2019-05-09T22:57:34.427Z,13.60
2019-05-09T23:00:03.980Z,13.60
2019-05-09T23:02:33.121Z,13.60
2019-05-09T23:05:02.128Z,13.60
2019-05-09T23:07:31.022Z,13.50
2019-05-09T23:09:59.977Z,13.50
2019-05-09T23:12:28.893Z,13.50
2019-05-09T23:14:57.739Z,13.50
2019-05-09T23:17:26.688Z,13.40
2019-05-09T23:19:55.548Z,13.50
2019-05-09T23:22:26.096Z,13.40
2019-05-09T23:24:55.097Z,13.40
2019-05-09T23:27:24.036Z,13.40
2019-05-09T23:29:53.126Z,13.30
2019-05-09T23:32:26.793Z,13.30
2019-05-09T23:34:55.644Z,13.30
2019-05-09T23:37:24.470Z,13.30
2019-05-09T23:39:55.113Z,13.20
2019-05-09T23:42:24.292Z,13.20
2019-05-09T23:44:53.179Z,13.10
2019-05-09T23:47:22.205Z,13.10
2019-05-09T23:49:51.166Z,13.10
2019-05-09T23:52:20.038Z,13.10
2019-05-09T23:55:07.106Z,13.00
2019-05-09T23:57:54.030Z,13.00
